Terminal Aerodrome Forecast
Issued by NWS Bismarck, ND

Home | Current Version | Previous Version | Graphics & Text | Print | Product List | Glossary On
Versions: 1 2 3 4 5 6 7 8 9 10 11 12 13 14 15 16 17 18 19 20 21
000
FTUS43 KBIS 211700
TAFISN
TAF
KISN 211721Z 2118/2218 06012KT P6SM BKN100
      TEMPO 2118/2122 -TSRA OVC050CB
     FM212200 03014KT P6SM -SHRA OVC050
     FM220100 01007KT P6SM SCT035 BKN050=

USA.gov is the U.S. government's official web portal to all federal, state and local government web resources and services.